Time;durP1;ratioP1;P1;durP2;ratioP2;P2;SDS_P1;SDS_P2;PMS_P1;PMS_P2;Temp;Humidity;BMP_temperature;BMP_pressure;BME280_temperature;BME280_humidity;BME280_pressure;Samples;Min_cycle;Max_cycle;Signal;HPM_P1;HPM_P2
2022/05/13 00:01:19;;;;;;;1.23;0.80;;;;;;;11.39;100.00;97865.34;4989969;28;20125;-42
2022/05/13 00:03:45;;;;;;;1.05;0.70;;;;;;;11.26;91.50;97853.22;4989973;28;20149;-43
2022/05/13 00:06:12;;;;;;;1.48;0.80;;;;;;;11.36;98.27;97865.53;4992800;28;20039;-43
2022/05/13 00:08:38;;;;;;;0.95;0.80;;;;;;;11.35;91.40;97860.44;4953660;28;20046;-45
2022/05/13 00:11:06;;;;;;;4.28;1.00;;;;;;;11.38;95.82;97868.88;4992266;28;20041;-45
2022/05/13 00:13:32;;;;;;;0.93;0.68;;;;;;;11.28;92.07;97857.41;4990533;28;20052;-44
2022/05/13 00:15:58;;;;;;;2.53;0.70;;;;;;;11.25;88.73;97860.19;4991765;28;20042;-42
2022/05/13 00:18:23;;;;;;;0.82;0.70;;;;;;;11.27;93.59;97863.53;4991869;28;20050;-44
2022/05/13 00:20:49;;;;;;;0.93;0.75;;;;;;;11.24;88.11;97863.75;4992113;28;20599;-44
2022/05/13 00:23:15;;;;;;;1.10;0.80;;;;;;;11.22;88.28;97869.97;4990519;28;20050;-43
2022/05/13 00:25:41;;;;;;;1.02;0.77;;;;;;;11.25;93.20;97870.59;4990564;28;20125;-43
2022/05/13 00:28:08;;;;;;;1.10;0.80;;;;;;;11.35;95.50;97879.50;4991700;28;20045;-43
2022/05/13 00:30:37;;;;;;;0.98;0.77;;;;;;;11.41;92.03;97873.03;4990305;28;20035;-43
2022/05/13 00:33:03;;;;;;;2.78;0.80;;;;;;;11.38;96.82;97868.03;4991835;28;20532;-43
2022/05/13 00:35:29;;;;;;;1.63;0.80;;;;;;;11.38;88.07;97873.25;4991185;28;20038;-46
2022/05/13 00:37:56;;;;;;;1.98;0.77;;;;;;;11.46;95.68;97879.59;4992130;28;20061;-44
2022/05/13 00:40:23;;;;;;;1.77;0.93;;;;;;;11.50;96.36;97882.84;4991709;28;20129;-43
2022/05/13 00:42:50;;;;;;;0.70;0.70;;;;;;;11.51;86.63;97865.47;4991477;28;20061;-42
2022/05/13 00:45:17;;;;;;;1.48;0.90;;;;;;;11.42;86.67;97891.16;4971604;28;20046;-44
2022/05/13 00:47:44;;;;;;;0.77;0.65;;;;;;;11.35;86.92;97884.69;4988470;28;20038;-43
2022/05/13 00:50:13;;;;;;;1.10;0.75;;;;;;;11.35;85.02;97882.09;4990731;28;20044;-45
2022/05/13 00:52:44;;;;;;;2.15;0.60;;;;;;;11.36;85.77;97888.94;4974440;28;20100;-42
2022/05/13 00:55:16;;;;;;;1.27;0.80;;;;;;;11.37;88.17;97888.00;4990195;28;20120;-44
2022/05/13 00:57:44;;;;;;;2.88;0.80;;;;;;;11.42;89.43;97885.94;4990162;28;20038;-43
2022/05/13 01:00:12;;;;;;;3.88;1.00;;;;;;;11.52;93.25;97886.16;4989918;28;20038;-44
2022/05/13 01:02:43;;;;;;;0.80;0.63;;;;;;;11.47;88.11;97872.63;4990892;28;21089;-44
2022/05/13 01:05:10;;;;;;;1.20;0.82;;;;;;;11.53;90.27;97897.41;4991543;28;20073;-43
2022/05/13 01:07:36;;;;;;;3.08;1.17;;;;;;;11.50;85.54;97903.66;4991243;28;20149;-46
2022/05/13 01:10:04;;;;;;;2.67;1.00;;;;;;;11.46;86.06;97892.59;4971141;28;20043;-42
2022/05/13 01:12:34;;;;;;;1.40;0.88;;;;;;;11.57;92.56;97891.03;4977265;28;20041;-42
2022/05/13 01:15:11;;;;;;;3.08;0.90;;;;;;;11.60;89.68;97886.50;4971367;28;20125;-43
2022/05/13 01:20:30;;;;;;;1.52;0.90;;;;;;;11.63;82.14;97888.88;4990922;28;20075;-44
2022/05/13 01:23:00;;;;;;;1.08;0.80;;;;;;;11.51;82.07;97907.94;4987295;28;20167;-46
2022/05/13 01:25:29;;;;;;;3.63;0.80;;;;;;;11.48;84.01;97906.34;4971484;28;20046;-44
2022/05/13 01:27:56;;;;;;;;;;;;;;;11.46;84.79;97910.81;4989694;28;20042;-43
2022/05/13 01:30:28;;;;;;;2.70;1.00;;;;;;;11.50;82.49;97910.63;4991058;28;19921;-41
2022/05/13 01:32:54;;;;;;;1.52;0.90;;;;;;;11.34;79.84;97906.44;4989998;28;20527;-43
2022/05/13 01:35:21;;;;;;;1.15;0.80;;;;;;;11.37;79.04;97918.41;4973178;28;20041;-43
2022/05/13 01:37:47;;;;;;;1.67;1.00;;;;;;;11.45;86.71;97916.16;4990964;28;20120;-44
2022/05/13 01:40:13;;;;;;;2.47;0.70;;;;;;;11.48;83.86;97916.75;4989943;28;20062;-45
2022/05/13 01:42:39;;;;;;;1.77;1.00;;;;;;;11.34;78.36;97903.84;4990347;28;20046;-42
2022/05/13 01:45:08;;;;;;;3.42;1.05;;;;;;;11.41;81.64;97922.47;4990532;28;20042;-43
2022/05/13 01:47:34;;;;;;;0.80;0.60;;;;;;;11.43;79.37;97918.00;4990830;28;20046;-42
2022/05/13 01:50:00;;;;;;;5.10;1.00;;;;;;;11.45;86.62;97924.78;4977550;28;20034;-42
2022/05/13 01:52:26;;;;;;;1.10;1.00;;;;;;;11.40;82.38;97916.44;4994395;28;20038;-42
2022/05/13 01:54:52;;;;;;;3.33;1.67;;;;;;;11.47;87.33;97914.25;4977769;28;20045;-43
2022/05/13 01:57:18;;;;;;;1.17;0.95;;;;;;;11.57;87.78;97923.13;4994775;28;20614;-44
2022/05/13 01:59:44;;;;;;;1.67;0.82;;;;;;;11.43;76.03;97921.44;4994764;28;20506;-43
2022/05/13 02:02:09;;;;;;;1.60;0.70;;;;;;;11.43;81.57;97915.41;4991331;28;20042;-45
2022/05/13 02:04:35;;;;;;;1.05;0.70;;;;;;;11.47;84.98;97916.84;4994782;28;20050;-42
2022/05/13 02:07:01;;;;;;;1.35;0.70;;;;;;;11.43;79.17;97926.63;4994909;28;20050;-44
2022/05/13 02:09:26;;;;;;;2.80;1.00;;;;;;;11.35;78.73;97926.31;4979290;28;20031;-43
2022/05/13 02:11:52;;;;;;;1.65;0.60;;;;;;;11.30;76.77;97917.16;4978099;28;20045;-41
2022/05/13 02:14:18;;;;;;;4.00;1.00;;;;;;;11.36;83.69;97934.94;4991904;28;20045;-43
2022/05/13 02:16:45;;;;;;;2.40;0.70;;;;;;;11.37;79.18;97929.63;4992692;28;20510;-43
2022/05/13 02:19:10;;;;;;;3.35;0.90;;;;;;;11.42;81.83;97937.97;4994651;28;20133;-42
2022/05/13 02:21:37;;;;;;;2.60;0.90;;;;;;;11.50;85.62;97934.88;4994304;28;20577;-43
2022/05/13 02:24:03;;;;;;;0.77;0.63;;;;;;;11.37;79.58;97908.00;4993649;28;20542;-43
2022/05/13 02:26:29;;;;;;;3.10;0.80;;;;;;;11.35;83.37;97928.94;4993793;28;20064;-43
2022/05/13 02:28:59;;;;;;;2.13;0.90;;;;;;;11.37;78.49;97949.63;4994383;28;20034;-45
2022/05/13 02:31:25;;;;;;;3.05;1.02;;;;;;;11.28;76.77;97940.66;4993974;28;20489;-41
2022/05/13 02:33:51;;;;;;;1.95;0.75;;;;;;;11.28;75.81;97955.44;4992949;28;20165;-45
2022/05/13 02:36:17;;;;;;;1.65;0.95;;;;;;;11.22;76.60;97953.22;4992673;28;20125;-42
2022/05/13 02:38:43;;;;;;;2.53;0.80;;;;;;;11.30;76.86;97948.38;4994496;28;20125;-41
2022/05/13 02:41:11;;;;;;;1.70;0.80;;;;;;;11.30;77.65;97948.38;4993023;28;20184;-42
2022/05/13 02:43:40;;;;;;;1.93;0.80;;;;;;;11.37;79.44;97945.25;4993066;28;20049;-44
2022/05/13 02:46:06;;;;;;;3.80;1.00;;;;;;;11.54;82.66;97944.16;4994199;28;20150;-42
2022/05/13 02:48:32;;;;;;;2.35;1.00;;;;;;;11.73;85.51;97959.41;4994002;28;20138;-44
2022/05/13 02:50:57;;;;;;;2.85;0.80;;;;;;;11.77;81.20;97958.28;4993975;28;20042;-42
2022/05/13 02:53:23;;;;;;;2.42;0.88;;;;;;;11.71;79.60;97958.66;4994224;28;20053;-42
2022/05/13 02:55:49;;;;;;;0.98;0.80;;;;;;;11.70;80.15;97965.63;4992578;28;20038;-44
2022/05/13 02:58:15;;;;;;;3.50;0.93;;;;;;;11.67;76.15;97968.41;4991462;28;20061;-44
2022/05/13 03:00:41;;;;;;;2.10;0.85;;;;;;;11.65;71.24;97972.06;4993573;28;20058;-43
2022/05/13 03:03:07;;;;;;;2.97;1.25;;;;;;;11.66;75.89;97969.38;4992162;28;20408;-42
2022/05/13 03:05:33;;;;;;;1.67;0.80;;;;;;;11.47;75.15;97964.53;4993754;28;20518;-41
2022/05/13 03:08:01;;;;;;;2.17;0.73;;;;;;;11.50;71.84;97973.91;4990886;28;20046;-42
2022/05/13 03:10:31;;;;;;;1.10;0.80;;;;;;;11.48;77.41;97974.00;4973388;28;20038;-42
2022/05/13 03:12:58;;;;;;;3.15;0.98;;;;;;;11.65;75.67;97972.06;4987013;28;20042;-42
2022/05/13 03:15:25;;;;;;;5.07;0.95;;;;;;;11.70;79.78;97981.25;4993748;28;20046;-44
2022/05/13 03:17:51;;;;;;;1.33;0.80;;;;;;;11.78;79.03;97991.16;4982215;28;20038;-44
2022/05/13 03:20:19;;;;;;;2.72;1.02;;;;;;;11.87;80.93;97982.78;4992455;28;20441;-41
2022/05/13 03:22:46;;;;;;;2.83;0.82;;;;;;;11.81;75.37;97983.19;4972678;28;20049;-43
2022/05/13 03:25:13;;;;;;;1.77;0.70;;;;;;;11.69;70.91;97997.78;4956755;28;20533;-43
2022/05/13 03:27:40;;;;;;;2.65;1.00;;;;;;;11.71;76.93;97998.53;4987616;28;20038;-41
2022/05/13 03:30:07;;;;;;;2.55;0.90;;;;;;;11.80;76.88;97987.53;4992418;28;20130;-42
2022/05/13 03:32:32;;;;;;;2.53;1.02;;;;;;;11.86;78.46;97981.94;4991962;28;20093;-42
2022/05/13 03:34:59;;;;;;;6.93;1.20;;;;;;;11.84;73.14;97989.00;4993205;28;20425;-42
2022/05/13 03:37:25;;;;;;;2.22;1.00;;;;;;;11.79;73.01;97998.88;4993631;28;20046;-43
2022/05/13 03:39:50;;;;;;;1.95;0.77;;;;;;;11.65;68.21;97998.09;4991003;28;20080;-45
2022/05/13 03:42:16;;;;;;;2.33;1.00;;;;;;;11.67;72.99;98004.06;4992882;28;20038;-43
2022/05/13 03:44:43;;;;;;;1.95;0.80;;;;;;;11.54;70.73;98004.00;4975517;28;20053;-42
2022/05/13 03:47:08;;;;;;;4.15;0.90;;;;;;;11.57;74.73;97977.78;4992054;28;20062;-42
2022/05/13 03:49:34;;;;;;;4.75;1.00;;;;;;;11.57;73.25;97976.94;4993049;28;20042;-42
2022/05/13 03:52:00;;;;;;;3.25;0.95;;;;;;;11.82;74.75;97998.72;4991053;28;20042;-44
2022/05/13 03:54:26;;;;;;;3.03;0.80;;;;;;;11.84;71.04;98022.00;4991588;28;20130;-43
2022/05/13 03:56:52;;;;;;;1.92;0.73;;;;;;;11.74;69.67;98005.34;4991776;28;20034;-43
2022/05/13 03:59:18;;;;;;;3.83;0.98;;;;;;;11.74;69.99;98002.72;4992464;28;20107;-43
2022/05/13 04:01:43;;;;;;;3.97;1.13;;;;;;;11.62;70.79;97986.09;4991807;28;20514;-44
2022/05/13 04:04:09;;;;;;;2.08;0.90;;;;;;;11.82;75.27;98011.72;4992240;28;20106;-44
2022/05/13 04:09:19;;;;;;;2.72;1.10;;;;;;;12.13;71.39;97992.28;4977425;28;20042;-42
2022/05/13 04:16:04;;;;;;;3.97;1.17;;;;;;;12.20;67.97;98009.13;4973360;28;20617;-43
2022/05/13 04:17:15;;;;;;;0.90;0.73;;;;;;;12.42;68.82;98018.09;4992601;28;20483;-44
2022/05/13 04:19:41;;;;;;;1.15;0.90;;;;;;;12.39;67.71;98026.16;4990860;28;20038;-44
2022/05/13 04:22:06;;;;;;;5.25;1.60;;;;;;;12.26;67.65;98028.75;4990750;28;20125;-43
2022/05/13 04:24:32;;;;;;;3.22;0.82;;;;;;;12.03;66.32;98004.25;4991761;28;20576;-44
2022/05/13 04:26:58;;;;;;;4.72;1.30;;;;;;;12.22;69.97;98017.69;4992389;28;20104;-42
2022/05/13 04:29:24;;;;;;;5.00;1.15;;;;;;;12.45;69.75;98012.69;4991145;28;20525;-42
2022/05/13 04:31:49;;;;;;;4.82;1.08;;;;;;;12.57;66.72;98028.31;4992014;28;20041;-44
2022/05/13 04:34:15;;;;;;;3.50;0.90;;;;;;;12.74;68.17;98025.38;4991714;28;20042;-44
2022/05/13 04:36:41;;;;;;;2.50;0.80;;;;;;;12.75;64.76;98026.22;4991702;28;20045;-42
2022/05/13 04:39:07;;;;;;;3.58;1.20;;;;;;;12.76;67.69;98012.25;4990086;28;20140;-42
2022/05/13 04:44:18;;;;;;;2.20;0.90;;;;;;;12.55;64.16;98030.22;4982137;28;20089;-43
2022/05/13 04:46:44;;;;;;;5.25;1.00;;;;;;;12.46;63.99;98027.38;4990567;28;20038;-43
2022/05/13 04:49:09;;;;;;;3.13;0.80;;;;;;;12.52;65.91;98026.97;4984985;28;20096;-43
2022/05/13 04:51:36;;;;;;;1.77;0.88;;;;;;;12.81;65.50;98045.81;4990920;28;20034;-45
2022/05/13 04:54:02;;;;;;;2.33;0.88;;;;;;;12.88;64.42;98036.63;4974710;28;20034;-44
2022/05/13 04:56:29;;;;;;;2.60;0.95;;;;;;;12.86;65.11;98026.31;4974490;28;20053;-44
2022/05/13 04:58:55;;;;;;;3.33;1.02;;;;;;;13.07;64.81;98031.78;4989637;28;20089;-43
2022/05/13 05:01:22;;;;;;;2.83;0.95;;;;;;;13.22;64.22;98029.91;4975628;28;20050;-44
2022/05/13 05:03:48;;;;;;;5.72;1.40;;;;;;;13.53;65.66;98032.81;4982746;28;20062;-43
2022/05/13 05:06:15;;;;;;;3.05;0.90;;;;;;;13.55;60.36;98040.53;4991620;28;20049;-43
2022/05/13 05:08:41;;;;;;;1.35;0.80;;;;;;;13.30;58.57;98035.38;4981332;28;20041;-45
2022/05/13 05:11:08;;;;;;;1.80;0.80;;;;;;;13.10;58.60;98039.38;4954684;28;20046;-42
2022/05/13 05:13:39;;;;;;;2.08;0.60;;;;;;;12.93;58.28;98044.94;4971970;28;20188;-43
2022/05/13 05:16:06;;;;;;;2.42;0.70;;;;;;;12.98;58.63;98035.06;4972070;28;20042;-42
2022/05/13 05:18:33;;;;;;;3.58;1.02;;;;;;;13.07;59.38;98050.91;4990360;28;20053;-43
2022/05/13 05:20:59;;;;;;;3.13;0.93;;;;;;;13.56;58.73;98050.00;4988138;28;20050;-44
2022/05/13 05:23:30;;;;;;;4.50;1.00;;;;;;;13.78;57.82;98052.72;4988931;28;20521;-42
2022/05/13 05:25:55;;;;;;;2.67;0.85;;;;;;;13.79;57.28;98037.91;4990654;28;20421;-44
2022/05/13 05:28:21;;;;;;;3.53;1.20;;;;;;;13.96;56.97;98034.88;4971665;28;20039;-46
2022/05/13 05:30:48;;;;;;;2.58;1.08;;;;;;;13.87;55.61;98052.03;4990066;28;20046;-46
2022/05/13 05:33:14;;;;;;;0.60;0.60;;;;;;;13.69;55.33;98050.81;4973079;28;20045;-48
2022/05/13 05:35:40;;;;;;;2.08;0.85;;;;;;;13.64;55.68;98052.91;4991275;28;20046;-47
2022/05/13 05:38:07;;;;;;;2.33;0.90;;;;;;;13.43;55.93;98037.03;4990969;28;20128;-45
2022/05/13 05:40:34;;;;;;;2.67;1.00;;;;;;;13.76;55.57;98054.66;4990438;28;20042;-43
2022/05/13 05:43:06;;;;;;;2.05;0.98;;;;;;;13.75;55.08;98047.75;4970511;28;20093;-43
2022/05/13 05:45:31;;;;;;;5.82;1.10;;;;;;;13.78;55.22;98051.91;4985425;28;20539;-44
2022/05/13 05:47:57;;;;;;;1.75;0.63;;;;;;;13.78;54.21;98051.91;4973464;28;20079;-43
2022/05/13 05:50:23;;;;;;;2.05;0.90;;;;;;;13.77;54.67;98048.44;4990476;28;20038;-43
2022/05/13 05:52:49;;;;;;;2.13;0.90;;;;;;;13.57;54.85;98042.06;4990242;28;20041;-46
2022/05/13 05:58:10;;;;;;;4.97;0.80;;;;;;;13.85;54.44;98047.91;4988438;28;20045;-43
2022/05/13 06:00:39;;;;;;;4.40;1.00;;;;;;;13.97;54.22;98054.84;4989917;28;20157;-43
2022/05/13 06:03:05;;;;;;;0.60;0.50;;;;;;;13.97;53.70;98050.41;4991071;28;20062;-43
2022/05/13 06:05:31;;;;;;;5.43;0.93;;;;;;;14.29;53.21;98044.56;4989341;28;20074;-44
2022/05/13 06:07:58;;;;;;;1.63;0.70;;;;;;;14.32;52.81;98057.44;4990121;28;20050;-45
2022/05/13 06:10:26;;;;;;;2.85;1.00;;;;;;;14.22;53.11;98079.97;4990595;28;20034;-43
2022/05/13 06:12:52;;;;;;;8.25;1.00;;;;;;;14.08;53.58;98067.91;4973767;28;20510;-43
2022/05/13 06:15:18;;;;;;;3.85;1.00;;;;;;;14.28;52.80;98051.59;4990286;28;20430;-45
2022/05/13 06:17:46;;;;;;;4.30;0.90;;;;;;;14.68;52.08;98070.34;4972772;28;20042;-43
2022/05/13 06:20:13;;;;;;;4.30;1.10;;;;;;;14.91;51.98;98075.59;4987827;28;20070;-43
2022/05/13 06:22:39;;;;;;;3.40;0.73;;;;;;;15.23;51.27;98073.88;4985623;28;20122;-43
2022/05/13 06:25:06;;;;;;;1.15;0.60;;;;;;;15.04;50.33;98069.28;4987919;28;20042;-46
2022/05/13 06:27:32;;;;;;;5.18;0.80;;;;;;;15.07;51.47;98082.13;4988562;28;20052;-46
2022/05/13 06:29:57;;;;;;;1.95;0.93;;;;;;;14.97;51.51;98090.84;4987661;28;20039;-42
2022/05/13 06:32:23;;;;;;;2.97;0.88;;;;;;;14.81;51.79;98081.53;4989670;28;20053;-43
2022/05/13 06:34:49;;;;;;;6.93;1.08;;;;;;;15.10;51.48;98088.91;4990490;28;20042;-44
2022/05/13 06:37:15;;;;;;;2.15;0.70;;;;;;;16.07;48.25;98088.94;4975905;28;20498;-48
2022/05/13 06:39:40;;;;;;;2.47;0.80;;;;;;;15.96;48.59;98102.91;4993487;28;20101;-41
2022/05/13 06:42:06;;;;;;;5.10;1.00;;;;;;;15.71;49.71;98092.75;4992338;28;20052;-44
2022/05/13 06:44:41;;;;;;;1.75;0.93;;;;;;;15.41;50.23;98088.16;4992156;28;20042;-46
2022/05/13 06:47:07;;;;;;;1.95;1.08;;;;;;;15.64;49.06;98071.50;4991465;28;20153;-44
2022/05/13 06:49:33;;;;;;;2.00;0.60;;;;;;;15.79;49.49;98095.63;4990533;28;20417;-43
2022/05/13 06:52:01;;;;;;;3.97;0.90;;;;;;;16.04;48.35;98097.06;4992219;28;20042;-48
2022/05/13 06:54:26;;;;;;;0.98;0.57;;;;;;;15.71;48.32;98086.69;4988084;28;20415;-41
2022/05/13 06:56:54;;;;;;;2.80;0.90;;;;;;;15.34;49.53;98083.50;4987153;28;20138;-43
2022/05/13 06:59:20;;;;;;;2.03;0.77;;;;;;;15.12;50.47;98079.16;4991312;28;20502;-42
2022/05/13 07:01:46;;;;;;;2.35;0.73;;;;;;;15.19;50.42;98083.78;4991906;28;20095;-42
2022/05/13 07:04:11;;;;;;;1.30;0.90;;;;;;;16.88;46.91;98078.59;4992742;28;20171;-42
2022/05/13 07:06:38;;;;;;;3.90;0.85;;;;;;;17.57;44.54;98072.59;4993499;28;20038;-42
2022/05/13 07:09:03;;;;;;;5.63;1.10;;;;;;;17.23;45.48;98093.94;4991305;28;20513;-42
2022/05/13 07:11:29;;;;;;;3.78;0.80;;;;;;;16.30;46.20;98087.88;4992870;28;20054;-42
2022/05/13 07:13:55;;;;;;;3.47;0.90;;;;;;;16.97;45.38;98102.38;4991900;28;20069;-42
2022/05/13 07:16:21;;;;;;;5.13;0.82;;;;;;;16.49;46.03;98092.41;4992657;28;20506;-41
2022/05/13 07:18:47;;;;;;;2.55;0.85;;;;;;;18.02;42.44;98070.31;4992674;28;20185;-46
2022/05/13 07:21:14;;;;;;;3.80;0.63;;;;;;;19.08;40.45;98096.44;4973639;28;20477;-43
2022/05/13 07:23:40;;;;;;;2.30;0.70;;;;;;;18.33;40.97;98077.06;4992666;28;20046;-41
2022/05/13 07:26:06;;;;;;;6.60;0.95;;;;;;;16.93;44.33;98092.16;4991315;28;20544;-43
2022/05/13 07:28:33;;;;;;;3.03;0.60;;;;;;;16.71;44.68;98108.06;4992733;28;20054;-44
2022/05/13 07:31:00;;;;;;;1.38;0.50;;;;;;;18.30;41.80;98106.31;4991198;28;20042;-40
2022/05/13 07:33:29;;;;;;;2.05;0.88;;;;;;;18.84;40.56;98107.50;4992108;28;20467;-43
2022/05/13 07:35:55;;;;;;;2.00;0.70;;;;;;;18.41;41.02;98107.97;4974731;28;20413;-43
2022/05/13 07:38:21;;;;;;;2.28;0.82;;;;;;;17.85;42.15;98103.38;4972785;28;20130;-42
2022/05/13 07:43:31;;;;;;;2.70;0.70;;;;;;;18.66;40.53;98114.44;4990112;28;20146;-43
2022/05/13 07:45:57;;;;;;;2.28;0.90;;;;;;;18.15;41.95;98111.16;4991413;28;20507;-41
2022/05/13 07:48:23;;;;;;;3.10;0.82;;;;;;;17.89;42.75;98110.03;4989621;28;20125;-43
2022/05/13 07:50:48;;;;;;;3.00;1.10;;;;;;;18.93;40.29;98102.19;4992478;28;20126;-41
2022/05/13 07:53:14;;;;;;;2.97;0.80;;;;;;;21.59;35.44;98115.31;4974885;28;20403;-43
2022/05/13 07:55:43;;;;;;;1.33;0.70;;;;;;;22.45;33.33;98112.38;4991696;28;20042;-41
2022/05/13 07:58:08;;;;;;;0.77;0.77;;;;;;;22.99;32.36;98087.78;4992560;28;20100;-44
2022/05/13 08:00:36;;;;;;;3.33;1.02;;;;;;;24.10;30.64;98096.41;4992636;28;20046;-42
2022/05/13 08:03:08;;;;;;;2.08;1.00;;;;;;;24.93;28.96;98108.88;4992524;28;20132;-41
2022/05/13 08:05:38;;;;;;;1.73;1.00;;;;;;;25.35;28.49;98103.75;4991259;28;20049;-43
2022/05/13 08:08:15;;;;;;;2.95;0.70;;;;;;;26.47;27.05;98076.59;4988871;28;20043;-43
2022/05/13 08:11:03;;;;;;;2.20;1.25;;;;;;;25.04;29.33;98103.94;4985462;28;20042;-45
2022/05/13 08:13:31;;;;;;;2.85;1.10;;;;;;;25.79;27.87;98100.25;4992372;28;20585;-43
2022/05/13 08:16:05;;;;;;;2.35;0.90;;;;;;;26.07;27.14;98090.50;4973226;28;20061;-42
2022/05/13 08:18:31;;;;;;;4.10;1.20;;;;;;;27.52;25.89;98105.84;4979567;28;20041;-41
2022/05/13 08:20:57;;;;;;;1.60;0.70;;;;;;;26.88;26.40;98094.56;4991922;28;20043;-43
2022/05/13 08:23:23;;;;;;;2.75;0.73;;;;;;;24.74;28.53;98100.41;4991538;28;20048;-43
2022/05/13 08:25:49;;;;;;;3.08;1.23;;;;;;;23.25;30.75;98100.81;4992204;28;20421;-42
2022/05/13 08:28:17;;;;;;;2.42;0.60;;;;;;;23.01;30.42;98099.06;4991426;28;20413;-41
2022/05/13 08:30:42;;;;;;;4.13;1.02;;;;;;;23.55;29.66;98097.38;4984683;28;20038;-42
2022/05/13 08:33:08;;;;;;;6.88;1.38;;;;;;;22.70;31.12;98085.69;4990175;28;20124;-42
2022/05/13 08:35:40;;;;;;;2.83;0.80;;;;;;;21.13;33.42;98095.44;4990664;28;20077;-42
2022/05/13 08:38:06;;;;;;;1.98;0.88;;;;;;;20.80;34.22;98101.50;4991784;28;20074;-43
2022/05/13 08:40:35;;;;;;;2.92;0.77;;;;;;;20.73;34.11;98106.56;4991444;28;20493;-43
2022/05/13 08:43:06;;;;;;;2.15;0.80;;;;;;;21.21;33.25;98094.66;4990538;28;20042;-44
2022/05/13 08:45:32;;;;;;;2.53;0.80;;;;;;;20.95;33.58;98105.22;4971968;28;20153;-43
2022/05/13 08:47:58;;;;;;;3.45;0.95;;;;;;;21.58;32.80;98105.72;4973453;28;20117;-44
2022/05/13 08:50:40;;;;;;;2.20;0.90;;;;;;;20.44;33.94;98111.31;4991567;28;20053;-41
2022/05/13 08:53:21;;;;;;;5.47;1.33;;;;;;;19.62;35.77;98098.31;4971190;28;20526;-42
2022/05/13 08:55:50;;;;;;;0.93;0.60;;;;;;;19.14;35.89;98087.97;4982439;28;20066;-42
2022/05/13 08:58:26;;;;;;;3.40;0.70;;;;;;;18.63;36.83;98091.06;4991150;28;20161;-42
2022/05/13 09:00:54;;;;;;;1.55;0.60;;;;;;;18.53;36.48;98080.50;4990429;28;20053;-41
2022/05/13 09:03:41;;;;;;;2.00;0.63;;;;;;;18.22;37.16;98095.63;4991537;28;20065;-42
2022/05/13 09:06:30;;;;;;;3.50;0.70;;;;;;;18.04;37.38;98094.69;4990342;28;20069;-41
2022/05/13 09:08:58;;;;;;;2.05;0.60;;;;;;;18.54;36.92;98095.34;4984927;28;20074;-42
2022/05/13 09:11:46;;;;;;;1.17;0.63;;;;;;;18.83;36.59;98097.94;4989008;28;20046;-41
2022/05/13 09:14:27;;;;;;;2.55;0.70;;;;;;;18.65;36.93;98087.28;4990084;28;20075;-42
2022/05/13 09:17:29;;;;;;;3.97;1.80;;;;;;;19.82;35.44;98099.84;4973829;28;20100;-41
2022/05/13 09:20:06;;;;;;;3.67;0.88;;;;;;;20.32;33.92;98094.06;4990952;28;20120;-43
2022/05/13 09:22:41;;;;;;;1.35;0.68;;;;;;;19.44;35.51;98103.50;4990068;28;20410;-43
2022/05/13 09:25:15;;;;;;;2.78;0.70;;;;;;;18.73;35.94;98108.50;4973336;28;20077;-42
2022/05/13 09:27:45;;;;;;;3.63;0.50;;;;;;;18.28;36.16;98107.41;4957683;28;20070;-44
2022/05/13 09:30:13;;;;;;;6.05;0.80;;;;;;;20.50;33.52;98100.16;4989477;28;20121;-43
2022/05/13 09:32:38;;;;;;;3.95;0.73;;;;;;;21.28;32.65;98106.25;4971285;28;20116;-43
2022/05/13 09:35:36;;;;;;;2.38;0.80;;;;;;;20.61;33.00;98105.19;4985625;28;20042;-43
2022/05/13 09:38:13;;;;;;;0.93;0.60;;;;;;;19.91;34.15;98098.94;4989398;28;20039;-42
2022/05/13 09:40:39;;;;;;;3.63;0.93;;;;;;;19.80;34.67;98092.06;4989759;28;20049;-44
2022/05/13 09:43:04;;;;;;;2.97;0.70;;;;;;;20.10;34.43;98108.50;4989829;28;20042;-41
2022/05/13 09:45:34;;;;;;;0.90;0.50;;;;;;;19.95;34.63;98099.47;4990557;28;20042;-43
2022/05/13 09:48:09;;;;;;;6.55;0.65;;;;;;;19.33;35.02;98112.44;4991320;28;20050;-44
2022/05/13 09:50:49;;;;;;;1.83;0.80;;;;;;;19.09;35.74;98100.75;4989891;28;20046;-42
2022/05/13 09:53:28;;;;;;;1.58;0.70;;;;;;;18.89;35.89;98113.97;4990361;28;20061;-43
2022/05/13 09:55:56;;;;;;;0.70;0.40;;;;;;;18.48;36.41;98115.13;4973777;28;20516;-43
2022/05/13 09:58:52;;;;;;;0.47;0.40;;;;;;;18.16;37.00;98119.88;4974054;28;20046;-44
2022/05/13 10:01:22;;;;;;;2.50;0.73;;;;;;;18.22;37.19;98127.19;4984874;28;20081;-43
2022/05/13 10:04:21;;;;;;;2.78;0.50;;;;;;;17.92;37.14;98124.69;4991449;28;20054;-44
2022/05/13 10:06:47;;;;;;;0.77;0.40;;;;;;;17.78;38.08;98110.16;4955748;28;20470;-44
2022/05/13 10:15:11;;;;;;;2.60;0.90;;;;;;;20.73;34.52;98128.53;4994351;28;20465;-43
2022/05/13 10:17:45;;;;;;;2.25;0.70;;;;;;;20.15;33.56;98122.91;4992952;28;20092;-40
2022/05/13 10:20:19;;;;;;;3.08;0.60;;;;;;;19.30;34.88;98125.06;4976406;28;20566;-42
2022/05/13 10:22:50;;;;;;;1.50;0.70;;;;;;;19.51;34.73;98112.53;4976927;28;20034;-43
2022/05/13 10:25:20;;;;;;;1.20;0.60;;;;;;;19.93;34.49;98119.91;4992742;28;20117;-43
2022/05/13 10:27:50;;;;;;;2.15;0.50;;;;;;;19.90;34.35;98126.28;4993839;28;20055;-42
2022/05/13 10:30:39;;;;;;;1.38;0.55;;;;;;;19.85;33.55;98107.44;4976277;28;20049;-43
2022/05/13 10:33:10;;;;;;;1.13;0.70;;;;;;;22.02;30.60;98124.91;4976602;28;20502;-43
2022/05/13 10:35:50;;;;;;;1.08;0.82;;;;;;;23.75;27.79;98112.91;4992520;28;20050;-47
2022/05/13 10:38:29;;;;;;;0.90;0.50;;;;;;;23.11;28.59;98109.47;4992791;28;20429;-42
2022/05/13 10:41:07;;;;;;;4.70;0.60;;;;;;;22.88;29.45;98109.34;4994024;28;20061;-42
2022/05/13 10:43:39;;;;;;;3.03;0.70;;;;;;;24.76;26.50;98101.03;4993863;28;20588;-45
2022/05/13 10:46:34;;;;;;;1.35;0.80;;;;;;;26.12;25.04;98104.06;4992008;28;20276;-43
2022/05/13 10:48:59;;;;;;;3.35;0.50;;;;;;;26.37;24.13;98107.25;4988266;28;20049;-44
2022/05/13 10:51:53;;;;;;;1.73;0.50;;;;;;;23.44;26.56;98100.41;4990921;28;20046;-43
2022/05/13 10:54:26;;;;;;;5.25;1.00;;;;;;;21.59;29.03;98128.53;4992485;28;20517;-47
2022/05/13 10:57:04;;;;;;;0.90;0.43;;;;;;;20.81;30.08;98111.09;4992656;28;20039;-44
2022/05/13 10:59:41;;;;;;;0.22;0.20;;;;;;;20.03;30.90;98110.94;4992665;28;20040;-45
2022/05/13 11:02:16;;;;;;;4.03;0.70;;;;;;;20.49;31.15;98114.31;4992370;28;20046;-42
2022/05/13 11:04:56;;;;;;;2.60;0.70;;;;;;;22.00;29.41;98102.22;4974135;28;20046;-44
2022/05/13 11:07:58;;;;;;;1.88;0.52;;;;;;;22.64;28.42;98112.00;4991981;28;20045;-45
2022/05/13 11:10:41;;;;;;;0.70;0.70;;;;;;;24.00;26.50;98104.63;4967715;28;20042;-42
2022/05/13 11:13:24;;;;;;;1.42;0.88;;;;;;;24.80;25.76;98102.34;4991708;28;20050;-43
2022/05/13 11:16:01;;;;;;;1.10;0.60;;;;;;;25.39;25.09;98098.88;4991281;28;20438;-45
2022/05/13 11:18:46;;;;;;;1.77;0.88;;;;;;;25.54;25.18;98110.38;4993026;28;20045;-43
2022/05/13 11:21:18;;;;;;;2.85;0.90;;;;;;;26.51;24.36;98101.81;4991921;28;20054;-47
2022/05/13 11:26:47;;;;;;;2.90;0.75;;;;;;;25.99;24.62;98090.63;4990693;28;20065;-45
2022/05/13 11:29:31;;;;;;;2.38;0.60;;;;;;;24.40;26.16;98087.56;4992698;28;20518;-44
2022/05/13 11:32:07;;;;;;;3.00;1.92;;;;;;;24.71;26.09;98087.47;4984078;28;20078;-45
2022/05/13 11:34:52;;;;;;;1.70;0.60;;;;;;;23.74;27.14;98090.00;4975760;28;20061;-44
2022/05/13 11:37:21;;;;;;;2.58;0.77;;;;;;;23.38;28.03;98071.09;4990315;28;20070;-43
2022/05/13 11:40:24;;;;;;;2.05;1.02;;;;;;;25.13;28.13;98094.03;4981485;28;20070;-44
2022/05/13 11:43:18;;;;;;;1.70;1.00;;;;;;;25.92;26.83;98098.53;4983025;28;20101;-40
2022/05/13 11:46:21;;;;;;;4.43;1.25;;;;;;;26.82;25.63;98092.63;4979205;28;20083;-44
2022/05/13 11:48:49;;;;;;;4.35;0.77;;;;;;;25.60;26.75;98075.03;4982894;28;20065;-44
2022/05/13 11:51:19;;;;;;;1.80;0.60;;;;;;;24.63;27.11;98084.91;4990229;28;20038;-42
2022/05/13 11:54:01;;;;;;;2.53;1.08;;;;;;;23.35;28.88;98087.34;4984271;28;20507;-44
2022/05/13 11:56:29;;;;;;;2.95;0.70;;;;;;;22.57;28.94;98097.78;4989926;28;20134;-45
2022/05/13 11:58:57;;;;;;;1.17;0.52;;;;;;;21.70;29.56;98096.50;4990133;28;20034;-45
2022/05/13 12:01:38;;;;;;;3.15;0.68;;;;;;;22.36;29.08;98108.88;4991337;28;20048;-45
2022/05/13 12:04:13;;;;;;;8.68;1.80;;;;;;;24.64;26.72;98091.03;4990142;28;20069;-45
2022/05/13 12:06:49;;;;;;;2.08;1.08;;;;;;;26.49;24.90;98087.84;4983187;28;20120;-43
2022/05/13 12:09:16;;;;;;;6.25;1.10;;;;;;;27.64;23.50;98092.72;4983166;28;20500;-42
2022/05/13 12:12:00;;;;;;;5.72;1.10;;;;;;;28.20;22.58;98088.81;4990556;28;20164;-42